Time;durP1;ratioP1;P1;durP2;ratioP2;P2;SDS_P1;SDS_P2;PMS_P1;PMS_P2;Temp;Humidity;BMP_temperature;BMP_pressure;BME280_temperature;BME280_humidity;BME280_pressure;Samples;Min_cycle;Max_cycle;Signal;HPM_P1;HPM_P2
2023/10/24 00:01:52;;;;;;;7.50;4.65;;;;;;;14.04;72.84;98683.84;4973465;28;20114;-82
2023/10/24 00:04:19;;;;;;;6.30;4.45;;;;;;;14.05;73.17;98672.28;4989937;28;20054;-83
2023/10/24 00:06:46;;;;;;;7.07;4.53;;;;;;;14.04;73.03;98670.63;4992193;28;20479;-83
2023/10/24 00:09:13;;;;;;;5.35;4.20;;;;;;;14.05;73.10;98666.97;4991464;28;20462;-84
2023/10/24 00:11:39;;;;;;;5.85;3.90;;;;;;;14.03;72.95;98661.00;4993036;28;20459;-84
2023/10/24 00:14:06;;;;;;;9.23;4.00;;;;;;;14.03;73.29;98662.81;4984029;28;20058;-82
2023/10/24 00:16:33;;;;;;;5.78;3.83;;;;;;;14.03;73.27;98655.72;4992943;28;20469;-88
2023/10/24 00:18:59;;;;;;;7.35;3.83;;;;;;;14.02;72.97;98651.38;4993085;28;20137;-83
2023/10/24 00:21:26;;;;;;;8.27;4.30;;;;;;;14.03;73.05;98650.44;4992869;28;20499;-87
2023/10/24 00:23:53;;;;;;;7.45;3.90;;;;;;;14.03;73.35;98654.88;4978188;28;20055;-86
2023/10/24 00:26:19;;;;;;;6.07;3.67;;;;;;;14.02;73.23;98648.72;4975060;28;20138;-83
2023/10/24 00:28:46;;;;;;;5.38;3.63;;;;;;;14.03;73.23;98644.28;4992683;28;20081;-83
2023/10/24 00:31:12;;;;;;;5.40;3.42;;;;;;;14.04;73.34;98645.94;4992467;28;20077;-86
2023/10/24 00:33:39;;;;;;;8.60;3.80;;;;;;;14.05;73.57;98644.97;4458573;28;15047232;-82
2023/10/24 00:36:06;;;;;;;7.20;3.67;;;;;;;14.06;73.10;98644.03;4986377;28;20082;-80
2023/10/24 00:38:33;;;;;;;5.47;3.60;;;;;;;14.08;73.50;98647.34;4992122;28;20545;-83
2023/10/24 00:41:00;;;;;;;7.38;3.60;;;;;;;14.08;73.54;98642.06;4993028;28;20054;-82
2023/10/24 00:43:27;;;;;;;5.28;3.15;;;;;;;14.09;73.38;98646.38;4986460;28;20452;-82
2023/10/24 00:45:53;;;;;;;4.40;3.35;;;;;;;14.12;73.48;98650.53;4972685;28;20057;-81
2023/10/24 00:48:20;;;;;;;7.32;2.95;;;;;;;14.11;73.34;98655.03;4973506;28;20047;-83
2023/10/24 00:50:47;;;;;;;5.82;3.20;;;;;;;14.11;73.41;98644.44;4973744;28;20107;-82
2023/10/24 00:53:14;;;;;;;4.32;3.03;;;;;;;14.12;73.42;98654.03;4972838;28;20507;-83
2023/10/24 00:55:41;;;;;;;15.98;3.80;;;;;;;14.13;73.62;98647.75;4992946;28;20109;-85
2023/10/24 00:58:09;;;;;;;5.97;3.65;;;;;;;14.14;73.53;98646.81;4992616;28;20636;-83
2023/10/24 01:00:37;;;;;;;6.90;3.15;;;;;;;14.16;73.42;98639.56;4991609;28;20058;-82
2023/10/24 01:03:04;;;;;;;7.28;3.60;;;;;;;14.18;73.46;98634.97;4991110;28;20084;-83
2023/10/24 01:05:32;;;;;;;5.50;3.13;;;;;;;14.19;73.38;98628.69;4982217;28;20392;-84
2023/10/24 01:07:58;;;;;;;9.10;3.38;;;;;;;14.20;73.33;98627.72;4972442;28;20050;-83
2023/10/24 01:10:25;;;;;;;5.90;3.58;;;;;;;14.21;73.30;98625.91;4972546;28;20057;-86
2023/10/24 01:12:52;;;;;;;5.28;3.58;;;;;;;14.22;73.21;98624.94;4973188;28;20047;-83
2023/10/24 01:15:18;;;;;;;4.32;3.15;;;;;;;14.23;73.24;98617.81;4974190;28;20055;-83
2023/10/24 01:17:52;;;;;;;5.93;3.03;;;;;;;14.22;73.65;98617.00;4973700;28;20078;-82
2023/10/24 01:20:19;;;;;;;4.72;3.40;;;;;;;14.25;73.16;98611.44;4973390;28;20055;-83
2023/10/24 01:22:46;;;;;;;5.18;3.63;;;;;;;14.26;73.33;98607.81;4973491;28;20054;-87
2023/10/24 01:25:14;;;;;;;8.10;3.50;;;;;;;14.28;73.13;98607.66;4980349;28;20426;-82
2023/10/24 01:27:43;;;;;;;7.72;3.75;;;;;;;14.28;73.08;98619.06;4990741;28;20049;-83
2023/10/24 01:30:11;;;;;;;5.55;3.33;;;;;;;14.29;73.14;98610.19;4992708;28;20319;-82
2023/10/24 01:32:38;;;;;;;5.35;4.10;;;;;;;14.29;72.94;98604.03;4974335;28;20059;-81
2023/10/24 01:35:07;;;;;;;5.63;3.60;;;;;;;14.29;73.15;98609.34;4973435;28;20389;-83
2023/10/24 01:37:35;;;;;;;6.10;3.22;;;;;;;14.30;73.04;98606.56;4972254;28;20054;-81
2023/10/24 01:40:05;;;;;;;5.20;3.70;;;;;;;14.28;73.12;98605.03;4973819;28;20050;-84
2023/10/24 01:42:32;;;;;;;7.43;4.10;;;;;;;14.29;72.99;98601.41;4978621;28;20073;-87
2023/10/24 01:44:58;;;;;;;5.93;3.83;;;;;;;14.28;72.99;98599.72;4992735;28;20120;-83
2023/10/24 01:47:25;;;;;;;4.30;3.90;;;;;;;14.28;73.04;98594.44;4994887;28;20104;-85
2023/10/24 01:49:52;;;;;;;8.18;3.83;;;;;;;14.27;73.21;98598.03;4996019;28;20051;-84
2023/10/24 01:52:18;;;;;;;6.53;3.85;;;;;;;14.29;73.12;98588.16;4995977;28;20450;-84
2023/10/24 01:54:45;;;;;;;8.80;4.05;;;;;;;14.29;73.12;98590.81;4996255;28;20046;-81
2023/10/24 01:57:12;;;;;;;6.90;4.18;;;;;;;14.30;73.26;98587.19;4987964;28;20050;-81
2023/10/24 01:59:38;;;;;;;6.95;3.22;;;;;;;14.32;73.28;98582.59;4976275;28;20487;-90
2023/10/24 02:02:05;;;;;;;4.93;3.30;;;;;;;14.33;73.46;98585.06;4991383;28;20058;-83
2023/10/24 02:04:32;;;;;;;4.57;3.13;;;;;;;14.35;73.26;98582.28;4996158;28;20046;-83
2023/10/24 02:06:58;;;;;;;6.57;3.00;;;;;;;14.39;73.20;98574.91;4996120;28;20085;-83
2023/10/24 02:09:27;;;;;;;4.65;3.10;;;;;;;14.40;73.27;98566.84;4995880;28;20454;-82
2023/10/24 02:11:54;;;;;;;5.97;3.22;;;;;;;14.42;73.09;98564.03;4994218;28;20058;-89
2023/10/24 02:14:20;;;;;;;6.88;3.22;;;;;;;14.45;73.13;98564.59;4995817;28;20054;-83
2023/10/24 02:16:47;;;;;;;7.63;3.45;;;;;;;14.48;73.06;98575.88;4995800;28;20054;-80
2023/10/24 02:19:14;;;;;;;14.27;3.40;;;;;;;14.48;73.05;98571.41;4995532;28;20080;-85
2023/10/24 02:21:40;;;;;;;5.40;3.03;;;;;;;14.50;73.24;98572.09;4995735;28;20054;-86
2023/10/24 02:24:07;;;;;;;5.57;3.17;;;;;;;14.53;73.20;98570.97;4995275;28;20062;-80
2023/10/24 02:26:34;;;;;;;6.65;2.92;;;;;;;14.54;73.06;98564.72;4995471;28;20501;-87
2023/10/24 02:29:00;;;;;;;4.95;2.88;;;;;;;14.56;72.98;98565.41;4995232;28;20105;-81
2023/10/24 02:31:27;;;;;;;6.45;3.08;;;;;;;14.57;73.14;98557.31;4994598;28;20050;-83
2023/10/24 02:33:54;;;;;;;4.43;2.47;;;;;;;14.59;72.96;98549.25;4976377;28;20058;-82
2023/10/24 02:36:20;;;;;;;7.00;2.13;;;;;;;14.60;73.06;98550.91;4976130;28;20448;-88
2023/10/24 02:38:47;;;;;;;4.82;2.30;;;;;;;14.62;73.10;98546.31;4979859;28;20050;-83
2023/10/24 02:41:14;;;;;;;4.35;2.40;;;;;;;14.64;73.14;98544.34;4977212;28;20061;-83
2023/10/24 02:43:40;;;;;;;7.95;2.47;;;;;;;14.67;73.07;98545.88;4987294;28;20062;-83
2023/10/24 02:46:08;;;;;;;3.97;2.30;;;;;;;14.69;73.01;98544.72;4994211;28;20070;-80
2023/10/24 02:48:34;;;;;;;4.47;2.13;;;;;;;14.70;73.10;98548.22;4995150;28;20507;-82
2023/10/24 02:51:01;;;;;;;5.95;2.50;;;;;;;14.72;73.13;98552.41;4983076;28;20070;-82
2023/10/24 02:53:28;;;;;;;3.35;2.30;;;;;;;14.76;73.01;98547.66;4974880;28;20105;-85
2023/10/24 02:55:54;;;;;;;2.60;1.98;;;;;;;14.78;72.88;98545.72;4975955;28;20121;-80
2023/10/24 02:58:21;;;;;;;2.83;2.05;;;;;;;14.79;72.90;98557.13;4975534;28;20054;-83
2023/10/24 03:00:48;;;;;;;3.80;1.60;;;;;;;14.80;72.79;98558.84;4975964;28;20054;-83
2023/10/24 03:03:14;;;;;;;3.45;1.60;;;;;;;14.80;72.63;98551.69;4975859;28;20055;-84
2023/10/24 03:05:41;;;;;;;5.20;2.22;;;;;;;14.81;72.69;98552.53;4975441;28;20603;-82
2023/10/24 03:08:08;;;;;;;3.50;1.98;;;;;;;14.83;72.77;98543.47;4975412;28;20471;-84
2023/10/24 03:10:41;;;;;;;5.55;1.95;;;;;;;14.82;72.61;98546.25;4986170;28;20051;-83
2023/10/24 03:13:08;;;;;;;3.70;1.75;;;;;;;14.85;72.76;98549.44;4994684;28;20053;-83
2023/10/24 03:15:35;;;;;;;6.63;1.75;;;;;;;14.88;72.81;98536.91;4993515;28;20803;-81
2023/10/24 03:18:02;;;;;;;5.10;1.63;;;;;;;14.89;72.61;98534.13;4993982;28;20057;-84
2023/10/24 03:20:29;;;;;;;4.10;1.80;;;;;;;14.91;72.77;98526.84;4994488;28;20136;-83
2023/10/24 03:22:56;;;;;;;5.05;2.08;;;;;;;14.94;72.81;98537.16;4993816;28;20058;-83
2023/10/24 03:25:27;;;;;;;5.03;1.88;;;;;;;14.95;72.59;98538.81;4994465;28;20051;-87
2023/10/24 03:27:54;;;;;;;6.05;2.10;;;;;;;14.99;72.71;98542.00;4994807;28;20112;-83
2023/10/24 03:30:21;;;;;;;7.53;2.33;;;;;;;15.00;72.55;98554.28;4992488;28;20043;-83
2023/10/24 03:32:48;;;;;;;5.72;2.17;;;;;;;15.02;72.58;98556.81;4979664;28;20392;-82
2023/10/24 03:35:15;;;;;;;5.95;2.40;;;;;;;15.02;72.39;98562.09;4975054;28;20043;-80
2023/10/24 03:37:42;;;;;;;6.93;2.22;;;;;;;15.01;72.60;98560.41;4974881;28;20529;-83
2023/10/24 03:40:09;;;;;;;5.38;2.00;;;;;;;15.02;72.40;98562.91;4973737;28;20050;-83
2023/10/24 03:42:37;;;;;;;6.68;2.15;;;;;;;15.02;72.56;98573.50;4985401;28;20046;-81
2023/10/24 03:45:04;;;;;;;7.35;2.55;;;;;;;15.02;72.57;98565.56;4994488;28;20161;-83
2023/10/24 03:47:31;;;;;;;4.82;2.17;;;;;;;15.03;72.65;98579.66;4994018;28;20050;-83
2023/10/24 03:49:58;;;;;;;5.95;2.60;;;;;;;15.03;72.42;98574.38;4994613;28;20050;-88
2023/10/24 03:52:25;;;;;;;5.22;2.33;;;;;;;15.02;72.54;98560.25;4980223;28;20089;-83
2023/10/24 03:54:52;;;;;;;3.47;2.35;;;;;;;15.02;72.51;98564.75;4974562;28;20149;-83
2023/10/24 03:57:19;;;;;;;6.47;2.83;;;;;;;15.02;72.55;98562.09;4974558;28;20093;-83
2023/10/24 03:59:45;;;;;;;4.80;2.88;;;;;;;15.02;72.78;98567.41;4974415;28;20109;-83
2023/10/24 04:02:12;;;;;;;4.78;2.67;;;;;;;15.01;72.68;98561.25;4984150;28;20054;-83
2023/10/24 04:04:38;;;;;;;3.00;2.22;;;;;;;15.01;72.84;98568.34;4993544;28;20046;-84
2023/10/24 04:07:06;;;;;;;4.78;2.60;;;;;;;15.01;72.64;98568.34;4993848;28;20050;-81
2023/10/24 04:09:32;;;;;;;4.72;2.28;;;;;;;15.02;72.95;98567.41;4993257;28;20050;-83
2023/10/24 04:12:05;;;;;;;7.97;2.58;;;;;;;15.02;72.81;98556.81;4993805;28;20049;-85
2023/10/24 04:14:32;;;;;;;3.00;2.10;;;;;;;15.01;72.65;98549.81;4993996;28;20053;-84
2023/10/24 04:16:59;;;;;;;3.88;2.47;;;;;;;15.01;72.75;98568.34;4974974;28;20047;-83
2023/10/24 04:19:26;;;;;;;3.47;2.60;;;;;;;15.00;72.58;98577.28;4972814;28;20055;-87
2023/10/24 04:21:53;;;;;;;3.97;2.65;;;;;;;15.01;72.81;98578.97;4974409;28;20526;-86
2023/10/24 04:24:20;;;;;;;3.60;2.47;;;;;;;14.97;72.81;98587.22;4975896;28;20062;-83
2023/10/24 04:26:47;;;;;;;5.13;2.53;;;;;;;14.97;72.84;98587.22;4980276;28;20101;-82
2023/10/24 04:29:14;;;;;;;6.30;3.13;;;;;;;14.96;72.86;98590.00;4988644;28;20054;-84
2023/10/24 04:31:41;;;;;;;3.25;2.90;;;;;;;14.95;72.73;98580.41;4993267;28;20093;-80
2023/10/24 04:34:08;;;;;;;28.35;3.65;;;;;;;14.94;72.88;98578.69;4991313;28;20118;-87
2023/10/24 04:36:34;;;;;;;5.75;3.30;;;;;;;14.93;72.86;98569.09;4989765;28;20476;-83
2023/10/24 04:39:01;;;;;;;5.70;3.35;;;;;;;14.93;73.09;98583.19;4992908;28;20046;-83
2023/10/24 04:41:28;;;;;;;7.35;3.80;;;;;;;14.92;73.11;98576.19;4971652;28;20050;-84
2023/10/24 04:43:54;;;;;;;4.97;3.33;;;;;;;14.92;73.21;98570.91;4975951;28;20511;-84
2023/10/24 04:46:21;;;;;;;8.38;4.00;;;;;;;14.91;73.33;98579.84;4975575;28;20560;-79
2023/10/24 04:48:48;;;;;;;5.72;3.90;;;;;;;14.91;73.25;98571.88;4992641;28;20046;-87
2023/10/24 04:51:14;;;;;;;8.13;4.40;;;;;;;14.89;73.15;98549.16;4990505;28;20089;-84
2023/10/24 04:53:41;;;;;;;6.00;4.72;;;;;;;14.90;73.30;98556.97;4973559;28;20054;-83
2023/10/24 04:56:08;;;;;;;6.15;4.70;;;;;;;14.89;73.04;98549.16;4973628;28;20050;-84
2023/10/24 04:58:35;;;;;;;5.20;4.28;;;;;;;14.89;73.18;98530.63;4972574;28;20125;-84
2023/10/24 05:01:03;;;;;;;8.68;4.57;;;;;;;14.90;73.13;98550.81;4973568;28;20047;-84
2023/10/24 05:03:29;;;;;;;8.07;5.35;;;;;;;14.89;73.38;98554.47;4973633;28;20055;-84
2023/10/24 05:05:56;;;;;;;5.53;4.65;;;;;;;14.90;73.27;98558.78;4973764;28;20134;-84
2023/10/24 05:08:23;;;;;;;9.45;5.05;;;;;;;14.90;73.36;98556.97;4972441;28;20057;-84
2023/10/24 05:10:50;;;;;;;6.68;4.75;;;;;;;14.90;73.37;98546.38;4970937;28;20126;-88
2023/10/24 05:13:17;;;;;;;7.85;4.63;;;;;;;14.91;73.33;98532.13;4983034;28;20061;-89
2023/10/24 05:15:45;;;;;;;5.82;4.43;;;;;;;14.91;73.43;98531.31;4992401;28;20054;-90
2023/10/24 05:18:12;;;;;;;7.47;4.47;;;;;;;14.92;73.33;98539.09;4992597;28;20054;-90
2023/10/24 05:20:38;;;;;;;6.90;4.13;;;;;;;14.93;73.48;98534.66;4993779;28;20081;-94
2023/10/24 05:23:08;;;;;;;6.82;4.13;;;;;;;14.91;73.37;98532.13;4988033;28;20061;-88
2023/10/24 05:28:05;;;;;;;5.72;3.80;;;;;;;14.93;73.24;98513.44;5078079;23;20057;-80
2023/10/24 05:30:32;;;;;;;8.18;4.20;;;;;;;14.93;73.09;98521.41;4995207;28;20411;-75
2023/10/24 05:32:58;;;;;;;6.63;4.40;;;;;;;14.92;72.92;98523.19;4989126;28;20047;-74
2023/10/24 05:35:25;;;;;;;7.25;3.95;;;;;;;14.93;73.06;98529.34;4995308;28;20590;-76
2023/10/24 05:37:52;;;;;;;5.22;3.95;;;;;;;14.92;73.04;98536.44;4993748;28;20050;-75
2023/10/24 05:40:18;;;;;;;7.38;4.22;;;;;;;14.91;73.13;98537.44;4993831;28;20054;-75
2023/10/24 05:42:45;;;;;;;5.78;3.83;;;;;;;14.91;73.03;98534.78;4994448;28;20065;-76
2023/10/24 05:45:11;;;;;;;6.15;4.30;;;;;;;14.91;73.09;98533.97;4986907;28;20446;-79
2023/10/24 05:47:38;;;;;;;6.28;4.05;;;;;;;14.90;73.08;98529.63;4987400;28;20050;-76
2023/10/24 05:50:05;;;;;;;5.78;3.47;;;;;;;14.90;73.17;98530.47;4975030;28;20113;-77
2023/10/24 05:52:32;;;;;;;7.30;4.28;;;;;;;14.91;73.04;98523.38;4983332;28;20074;-76
2023/10/24 05:54:58;;;;;;;7.55;4.30;;;;;;;14.91;73.20;98532.13;4991759;28;20462;-76
2023/10/24 05:57:25;;;;;;;6.97;4.47;;;;;;;14.92;73.22;98533.81;4975964;28;20085;-76
2023/10/24 05:59:51;;;;;;;6.32;4.32;;;;;;;14.92;73.35;98523.19;4980496;28;20490;-81
2023/10/24 06:02:18;;;;;;;7.30;3.92;;;;;;;14.93;73.32;98511.66;4994480;28;20050;-75
2023/10/24 06:04:45;;;;;;;4.97;4.22;;;;;;;14.95;73.13;98509.66;4994935;28;20073;-75
2023/10/24 06:07:13;;;;;;;6.15;4.13;;;;;;;14.97;73.34;98520.13;4986032;28;20081;-77
2023/10/24 06:09:40;;;;;;;5.97;4.18;;;;;;;14.97;73.21;98520.13;4994509;28;20054;-76
2023/10/24 06:12:08;;;;;;;5.75;4.10;;;;;;;14.98;73.15;98513.84;4982772;28;20089;-76
2023/10/24 06:14:34;;;;;;;4.78;3.50;;;;;;;15.00;73.17;98519.00;4974783;28;20129;-72
2023/10/24 06:17:01;;;;;;;7.03;3.88;;;;;;;15.01;73.09;98515.34;4983045;28;20053;-75
2023/10/24 06:19:29;;;;;;;8.30;3.67;;;;;;;15.01;73.31;98520.66;4974632;28;20058;-76
2023/10/24 06:21:56;;;;;;;7.78;3.33;;;;;;;15.01;73.09;98518.00;4982776;28;20518;-75
2023/10/24 06:24:22;;;;;;;4.13;3.55;;;;;;;15.01;73.10;98515.34;4994360;28;20499;-76
2023/10/24 06:26:49;;;;;;;6.38;4.03;;;;;;;15.01;72.89;98520.66;4985462;28;20509;-77
2023/10/24 06:29:16;;;;;;;9.27;3.30;;;;;;;15.01;72.90;98523.31;4993814;28;20046;-75
2023/10/24 06:31:42;;;;;;;6.00;3.35;;;;;;;14.98;72.90;98509.38;4993830;28;20454;-75
2023/10/24 06:34:09;;;;;;;6.90;3.55;;;;;;;14.98;73.08;98517.34;4994023;28;20058;-82
2023/10/24 06:36:36;;;;;;;3.55;2.75;;;;;;;14.99;72.95;98523.44;4985190;28;20062;-72
2023/10/24 06:39:04;;;;;;;5.90;3.20;;;;;;;14.98;73.00;98532.38;4993747;28;20054;-74
2023/10/24 06:41:31;;;;;;;4.75;3.67;;;;;;;14.98;72.99;98541.19;4977039;28;20070;-76
2023/10/24 06:43:58;;;;;;;4.30;2.90;;;;;;;14.98;72.81;98543.84;4974210;28;20051;-75
2023/10/24 06:46:25;;;;;;;4.55;2.85;;;;;;;14.97;72.91;98542.16;4977908;28;20050;-77
2023/10/24 06:48:52;;;;;;;5.50;3.50;;;;;;;14.98;72.86;98543.84;4973758;28;20105;-75
2023/10/24 06:51:19;;;;;;;4.88;2.70;;;;;;;14.98;73.11;98537.69;4973701;28;20527;-78
2023/10/24 06:53:46;;;;;;;3.08;2.60;;;;;;;14.97;72.85;98531.56;4974138;28;20050;-75
2023/10/24 06:56:12;;;;;;;3.83;2.58;;;;;;;14.97;72.92;98528.91;4974164;28;20059;-78
2023/10/24 06:58:40;;;;;;;4.78;2.85;;;;;;;14.98;72.97;98527.94;4973856;28;20054;-76
2023/10/24 07:01:07;;;;;;;3.35;2.35;;;;;;;14.99;72.97;98515.50;4974259;28;20051;-73
2023/10/24 07:03:34;;;;;;;6.53;3.10;;;;;;;14.99;73.07;98507.56;4974230;28;20082;-74
2023/10/24 07:06:00;;;;;;;4.00;2.90;;;;;;;15.01;73.16;98524.16;4974058;28;20066;-75
2023/10/24 07:08:27;;;;;;;3.08;2.70;;;;;;;15.02;73.08;98528.47;4973787;28;20067;-75
2023/10/24 07:10:53;;;;;;;4.47;3.05;;;;;;;15.03;72.99;98534.59;4973854;28;20086;-76
2023/10/24 07:13:20;;;;;;;7.95;3.38;;;;;;;15.02;73.06;98525.81;4974022;28;20058;-76
2023/10/24 07:15:47;;;;;;;6.53;3.15;;;;;;;15.03;73.03;98526.66;4974102;28;20050;-73
2023/10/24 07:18:14;;;;;;;6.03;3.00;;;;;;;15.03;73.08;98522.19;4973559;28;20054;-75
2023/10/24 07:20:41;;;;;;;4.30;3.35;;;;;;;15.03;73.12;98521.38;4973702;28;20597;-76
2023/10/24 07:23:07;;;;;;;4.45;3.28;;;;;;;15.03;73.05;98519.53;4973659;28;20050;-73
2023/10/24 07:25:34;;;;;;;4.47;3.35;;;;;;;15.03;73.03;98522.19;4973501;28;20061;-75
2023/10/24 07:28:02;;;;;;;7.57;3.35;;;;;;;15.04;73.00;98520.38;4973644;28;20409;-76
2023/10/24 07:30:29;;;;;;;7.15;3.40;;;;;;;15.05;73.12;98514.09;4973557;28;20059;-76
2023/10/24 07:32:56;;;;;;;6.88;3.42;;;;;;;15.07;73.04;98517.44;4973666;28;20055;-75
2023/10/24 07:35:23;;;;;;;3.72;3.25;;;;;;;15.07;73.25;98518.25;4973404;28;20065;-77
2023/10/24 07:37:50;;;;;;;4.35;3.40;;;;;;;15.09;73.06;98520.75;4973391;28;20047;-78
2023/10/24 07:40:17;;;;;;;5.78;3.50;;;;;;;15.11;73.33;98521.47;4973648;28;20059;-76
2023/10/24 07:42:43;;;;;;;6.72;3.78;;;;;;;15.11;73.15;98526.75;4972835;28;20054;-76
2023/10/24 07:45:11;;;;;;;5.30;3.55;;;;;;;15.12;73.05;98531.06;4973189;28;20538;-77
2023/10/24 07:47:38;;;;;;;4.82;3.40;;;;;;;15.14;73.07;98531.75;4973304;28;20050;-77
2023/10/24 07:50:08;;;;;;;3.70;3.30;;;;;;;15.14;72.76;98531.75;4973070;28;20407;-75
2023/10/24 07:52:34;;;;;;;5.50;4.00;;;;;;;15.16;72.75;98532.44;4973127;28;20043;-74
2023/10/24 07:55:01;;;;;;;5.68;3.95;;;;;;;15.17;72.75;98534.13;4971990;28;20478;-73
2023/10/24 07:57:29;;;;;;;4.20;3.40;;;;;;;15.17;72.65;98536.75;4973041;28;20058;-75
2023/10/24 07:59:57;;;;;;;6.80;4.07;;;;;;;15.17;72.59;98536.75;4972925;28;20053;-74
2023/10/24 08:02:23;;;;;;;5.72;3.95;;;;;;;15.17;72.71;98525.34;4973030;28;20146;-79
2023/10/24 08:04:50;;;;;;;4.15;3.75;;;;;;;15.17;72.53;98525.34;4972961;28;20511;-75
2023/10/24 08:07:16;;;;;;;5.47;4.18;;;;;;;15.18;72.48;98533.13;4972805;28;20150;-75
2023/10/24 08:09:43;;;;;;;4.20;3.78;;;;;;;15.18;72.55;98521.69;4972605;28;20051;-76
2023/10/24 08:12:11;;;;;;;4.70;3.53;;;;;;;15.18;72.57;98522.53;4972965;28;20086;-78
2023/10/24 08:14:38;;;;;;;6.13;4.00;;;;;;;15.19;72.67;98523.38;4972819;28;20058;-76
2023/10/24 08:17:05;;;;;;;4.90;3.60;;;;;;;15.21;72.78;98524.88;4972736;28;20065;-77
2023/10/24 08:19:32;;;;;;;9.20;4.15;;;;;;;15.23;72.74;98514.13;4972390;28;20534;-75
2023/10/24 08:21:58;;;;;;;5.13;4.00;;;;;;;15.26;72.51;98513.00;4972714;28;20062;-73
2023/10/24 08:24:25;;;;;;;5.45;3.70;;;;;;;15.28;72.48;98521.66;4972764;28;20047;-76
2023/10/24 08:26:51;;;;;;;4.63;3.83;;;;;;;15.30;72.20;98519.69;4971145;28;20499;-72
2023/10/24 08:29:35;;;;;;;5.72;3.80;;;;;;;15.32;72.29;98512.41;4972362;28;20051;-78
2023/10/24 08:32:02;;;;;;;5.25;4.22;;;;;;;15.33;72.10;98514.91;4972474;28;20094;-72
2023/10/24 08:34:36;;;;;;;5.88;4.10;;;;;;;15.35;72.11;98520.06;4972755;28;20066;-76
2023/10/24 08:37:04;;;;;;;4.50;3.83;;;;;;;15.35;71.74;98530.66;4972293;28;20053;-75
2023/10/24 08:39:30;;;;;;;5.63;3.70;;;;;;;15.35;71.65;98538.63;4972142;28;20125;-78
2023/10/24 08:41:57;;;;;;;4.30;3.70;;;;;;;15.35;71.52;98535.97;4972368;28;20047;-74
2023/10/24 08:44:24;;;;;;;6.88;3.72;;;;;;;15.35;71.22;98528.00;4972262;28;20428;-75
2023/10/24 08:46:51;;;;;;;5.07;3.53;;;;;;;15.33;71.26;98535.28;4972093;28;20054;-77
2023/10/24 08:49:19;;;;;;;4.28;3.67;;;;;;;15.31;71.30;98543.41;4972147;28;20137;-76
2023/10/24 08:51:46;;;;;;;4.55;3.88;;;;;;;15.32;71.34;98549.50;4972316;28;20047;-77
2023/10/24 08:54:12;;;;;;;7.65;3.72;;;;;;;15.32;71.28;98546.84;4972047;28;20510;-76
2023/10/24 08:56:41;;;;;;;4.97;3.70;;;;;;;15.30;71.06;98555.00;4972131;28;20055;-74
2023/10/24 08:59:09;;;;;;;6.70;4.10;;;;;;;15.31;71.26;98550.50;4971859;28;20104;-76
2023/10/24 09:01:43;;;;;;;4.20;3.80;;;;;;;15.31;70.58;98553.16;4972294;28;20125;-75
2023/10/24 09:04:11;;;;;;;7.23;4.30;;;;;;;15.32;71.01;98547.72;4972227;28;20051;-73
2023/10/24 09:06:38;;;;;;;9.90;4.07;;;;;;;15.32;71.06;98549.50;4972127;28;20082;-80
2023/10/24 09:09:05;;;;;;;4.88;3.70;;;;;;;15.32;70.98;98553.00;4971761;28;20492;-76
2023/10/24 09:11:59;;;;;;;5.25;3.58;;;;;;;15.27;70.09;98557.06;4972009;28;20050;-76
2023/10/24 09:14:30;;;;;;;4.40;3.17;;;;;;;15.29;70.51;98555.94;4972250;28;20043;-76
2023/10/24 09:17:17;;;;;;;4.72;3.53;;;;;;;15.30;70.49;98562.09;4971191;28;20648;-77
2023/10/24 09:19:44;;;;;;;4.75;3.28;;;;;;;15.27;70.34;98557.94;4971776;28;20062;-75
2023/10/24 09:22:16;;;;;;;3.72;3.15;;;;;;;15.23;69.78;98551.25;4972083;28;20090;-75
2023/10/24 09:24:47;;;;;;;4.93;3.47;;;;;;;15.22;69.72;98554.88;4972143;28;20055;-77
2023/10/24 09:27:16;;;;;;;4.63;3.50;;;;;;;15.21;70.18;98554.03;4971908;28;20050;-80
2023/10/24 09:29:43;;;;;;;5.45;3.90;;;;;;;15.20;70.22;98552.38;4971507;28;20051;-80
2023/10/24 09:32:16;;;;;;;3.45;2.78;;;;;;;15.18;69.76;98550.88;4971876;28;20150;-76
2023/10/24 09:34:44;;;;;;;5.93;3.63;;;;;;;15.19;70.21;98547.22;4971726;28;20050;-75
2023/10/24 09:37:13;;;;;;;4.93;3.58;;;;;;;15.19;70.22;98545.41;4970474;28;20451;-73
2023/10/24 09:39:56;;;;;;;5.40;3.58;;;;;;;15.16;69.71;98539.56;4971574;28;20500;-76
2023/10/24 09:42:30;;;;;;;4.55;3.35;;;;;;;15.19;69.65;98532.16;4971811;28;20050;-75
2023/10/24 09:45:07;;;;;;;5.38;3.35;;;;;;;15.22;70.38;98531.84;4971741;28;20057;-76
2023/10/24 09:47:36;;;;;;;4.40;2.85;;;;;;;15.23;70.23;98530.03;4971951;28;20057;-75
2023/10/24 09:50:09;;;;;;;3.83;2.95;;;;;;;15.27;70.50;98520.81;4970504;28;20054;-75
2023/10/24 09:52:36;;;;;;;4.18;2.97;;;;;;;15.29;70.29;98537.38;4971788;28;20047;-77
2023/10/24 09:55:03;;;;;;;4.82;3.13;;;;;;;15.33;70.16;98522.03;4971721;28;20054;-74
2023/10/24 09:57:30;;;;;;;6.18;3.00;;;;;;;15.34;69.76;98531.66;4971629;28;20495;-79
2023/10/24 09:59:58;;;;;;;4.93;3.97;;;;;;;15.36;69.48;98545.59;4971744;28;20075;-74
2023/10/24 10:02:26;;;;;;;5.00;3.25;;;;;;;15.35;69.41;98536.81;4971848;28;20053;-77
2023/10/24 10:04:53;;;;;;;7.28;2.80;;;;;;;15.35;69.50;98543.91;4970453;28;20058;-75
2023/10/24 10:07:21;;;;;;;3.40;2.67;;;;;;;15.34;69.46;98547.56;4973832;28;20050;-77
2023/10/24 10:09:51;;;;;;;5.20;2.97;;;;;;;15.34;69.06;98547.56;4974941;28;20129;-76
2023/10/24 10:12:18;;;;;;;7.22;3.40;;;;;;;15.35;69.21;98546.56;4974936;28;20131;-75
2023/10/24 10:15:22;;;;;;;5.70;3.17;;;;;;;15.30;68.58;98543.53;4975281;28;20646;-75
2023/10/24 10:18:21;;;;;;;6.25;3.22;;;;;;;15.30;68.67;98533.78;4975048;28;20101;-75
2023/10/24 10:21:21;;;;;;;5.75;3.60;;;;;;;15.30;68.69;98533.78;4974924;28;20114;-74
2023/10/24 10:24:17;;;;;;;5.18;3.60;;;;;;;15.35;69.43;98520.06;4974844;28;20050;-74
2023/10/24 10:27:15;;;;;;;8.77;3.60;;;;;;;15.32;68.88;98525.66;4971880;28;20127;-72
2023/10/24 10:30:14;;;;;;;4.15;3.40;;;;;;;15.32;68.60;98523.00;4974784;28;20138;-77
2023/10/24 10:33:15;;;;;;;4.63;2.90;;;;;;;15.32;68.03;98529.16;4974826;28;20082;-75
2023/10/24 10:35:46;;;;;;;4.20;2.80;;;;;;;15.36;68.69;98524.38;4974773;28;20054;-77
2023/10/24 10:38:13;;;;;;;4.22;3.13;;;;;;;15.38;69.49;98519.78;4974393;28;20471;-77
2023/10/24 10:40:39;;;;;;;8.18;2.88;;;;;;;15.37;69.36;98516.28;4974546;28;20058;-74
2023/10/24 10:43:06;;;;;;;3.75;3.30;;;;;;;15.39;69.95;98512.66;4974543;28;20046;-74
2023/10/24 10:45:32;;;;;;;7.82;3.13;;;;;;;15.40;69.45;98512.47;4974328;28;20389;-77
2023/10/24 10:48:02;;;;;;;4.65;3.13;;;;;;;15.41;69.40;98502.72;4974234;28;20523;-76
2023/10/24 10:50:30;;;;;;;6.57;3.35;;;;;;;15.45;69.46;98512.06;4974285;28;20129;-73
2023/10/24 10:53:03;;;;;;;10.15;3.67;;;;;;;15.45;69.04;98506.75;4974316;28;20495;-79
2023/10/24 10:55:45;;;;;;;6.57;3.90;;;;;;;15.48;68.84;98501.97;4974173;28;20047;-73
2023/10/24 10:58:21;;;;;;;5.07;3.50;;;;;;;15.53;69.07;98500.69;4974086;28;20059;-75
2023/10/24 11:00:57;;;;;;;6.07;3.08;;;;;;;15.53;68.69;98509.47;4974372;28;20051;-75
2023/10/24 11:03:44;;;;;;;5.35;3.42;;;;;;;15.55;68.36;98501.38;4974099;28;20047;-79
2023/10/24 11:06:17;;;;;;;7.75;2.80;;;;;;;15.61;69.00;98483.03;4972913;28;20130;-73
2023/10/24 11:08:49;;;;;;;4.22;3.45;;;;;;;15.64;68.76;98480.06;4974108;28;20058;-76
2023/10/24 11:11:20;;;;;;;5.20;3.42;;;;;;;15.68;69.06;98483.28;4974098;28;20117;-74
2023/10/24 11:13:51;;;;;;;5.20;3.60;;;;;;;15.74;69.60;98476.53;4974011;28;20058;-76
2023/10/24 11:16:18;;;;;;;5.93;3.47;;;;;;;15.80;69.68;98473.25;4973891;28;20054;-75
2023/10/24 11:19:03;;;;;;;4.55;3.85;;;;;;;15.87;69.23;98473.47;4972659;28;20086;-76
2023/10/24 11:21:30;;;;;;;6.47;3.80;;;;;;;15.92;69.14;98465.88;4973666;28;20054;-75
2023/10/24 11:24:00;;;;;;;5.32;3.47;;;;;;;15.97;68.58;98468.09;4973635;28;20492;-76
2023/10/24 11:28:54;;;;;;;4.70;3.30;;;;;;;16.17;69.62;98459.94;4973637;28;20385;-75
2023/10/24 11:31:23;;;;;;;4.88;2.65;;;;;;;16.31;69.79;98463.84;4974985;28;20138;-74
2023/10/24 11:33:50;;;;;;;3.25;2.80;;;;;;;16.52;71.39;98456.31;4975509;28;20042;-75
2023/10/24 11:36:16;;;;;;;6.43;2.72;;;;;;;16.88;74.13;98457.16;4975245;28;20101;-72
2023/10/24 11:38:44;;;;;;;4.35;2.78;;;;;;;17.33;73.13;98452.47;4974715;28;20153;-71
2023/10/24 11:41:11;;;;;;;2.90;2.50;;;;;;;17.82;71.63;98451.69;4974594;28;20061;-73
2023/10/24 11:43:38;;;;;;;2.45;2.08;;;;;;;18.22;68.75;98443.84;4973781;28;20133;-80
2023/10/24 11:46:04;;;;;;;3.40;2.25;;;;;;;18.55;67.82;98445.59;4974345;28;20073;-75